createdAt,value
2022-12-07T04:48:38.875Z,100306.53
2022-12-07T04:51:42.112Z,100309.19
2022-12-07T04:54:44.679Z,100305.44
2022-12-07T04:57:47.459Z,100312.19
2022-12-07T05:00:50.201Z,100312.66
2022-12-07T05:03:53.287Z,100295.38
2022-12-07T05:06:55.831Z,100298.72
2022-12-07T05:09:58.764Z,100297.50
2022-12-07T05:13:01.289Z,100289.47
2022-12-07T05:16:04.347Z,100284.53
2022-12-07T05:19:07.704Z,100275.19
2022-12-07T05:22:10.719Z,100279.75
2022-12-07T05:25:13.210Z,100269.69
2022-12-07T05:28:16.081Z,100271.50
2022-12-07T05:31:18.696Z,100267.50
2022-12-07T05:34:21.677Z,100267.34
2022-12-07T05:37:24.224Z,100267.59
2022-12-07T05:40:26.939Z,100261.34
2022-12-07T05:43:30.144Z,100265.22
2022-12-07T05:46:33.518Z,100269.31
2022-12-07T05:49:36.051Z,100261.09
2022-12-07T05:52:38.792Z,100265.88
2022-12-07T05:55:41.397Z,100273.06
2022-12-07T05:59:02.442Z,100274.28
2022-12-07T06:02:08.338Z,100277.41
2022-12-07T06:05:11.285Z,100286.22
2022-12-07T06:08:15.906Z,100281.34
2022-12-07T06:11:37.434Z,100287.13
2022-12-07T06:14:40.131Z,100284.78
2022-12-07T06:17:42.931Z,100283.81
2022-12-07T06:20:45.416Z,100282.06
2022-12-07T06:23:49.063Z,100285.69
2022-12-07T06:26:52.082Z,100284.19
2022-12-07T06:29:54.826Z,100276.38
2022-12-07T06:32:57.300Z,100285.19
2022-12-07T06:36:00.009Z,100283.12
2022-12-07T06:39:03.488Z,100278.50
2022-12-07T06:42:06.393Z,100291.44
2022-12-07T06:45:09.102Z,100292.13
2022-12-07T06:48:11.836Z,100296.34
2022-12-07T06:51:14.612Z,100291.69
2022-12-07T06:54:18.017Z,100294.97
2022-12-07T06:57:21.275Z,100304.69
2022-12-07T07:00:25.987Z,100302.63
2022-12-07T07:03:30.933Z,100298.16
2022-12-07T07:06:34.053Z,100302.56
2022-12-07T07:09:36.605Z,100302.69
2022-12-07T07:12:39.390Z,100311.75
2022-12-07T07:15:41.954Z,100309.03
2022-12-07T07:18:44.843Z,100304.28
2022-12-07T07:21:47.480Z,100300.47
2022-12-07T07:24:50.378Z,100315.13
2022-12-07T07:27:52.862Z,100305.78
2022-12-07T07:30:55.677Z,100308.25
2022-12-07T07:34:01.141Z,100309.91
2022-12-07T07:37:03.963Z,100316.69
2022-12-07T07:40:07.622Z,100303.25
2022-12-07T07:43:10.500Z,100301.63
2022-12-07T07:46:13.035Z,100305.75
2022-12-07T07:49:15.890Z,100299.59
2022-12-07T07:52:18.480Z,100303.06
2022-12-07T07:55:24.067Z,100297.41
2022-12-07T07:58:26.769Z,100306.16
2022-12-07T08:01:29.841Z,100308.03
2022-12-07T08:04:32.652Z,100311.69
2022-12-07T08:07:35.260Z,100315.16
2022-12-07T08:10:38.297Z,100314.50
2022-12-07T08:13:40.755Z,100308.28
2022-12-07T08:16:43.523Z,100310.00
2022-12-07T08:19:46.277Z,100310.44
2022-12-07T08:22:48.996Z,100321.13
2022-12-07T08:25:51.453Z,100319.03
2022-12-07T08:28:54.323Z,100327.91
2022-12-07T08:32:08.088Z,100330.31
2022-12-07T08:35:12.600Z,100332.16
2022-12-07T08:38:15.153Z,100328.09
2022-12-07T08:41:18.154Z,100337.03
2022-12-07T08:44:20.626Z,100340.53
2022-12-07T08:47:24.665Z,100339.31
2022-12-07T08:50:27.675Z,100332.34
2022-12-07T08:53:32.292Z,100332.34
2022-12-07T08:56:35.665Z,100326.75
2022-12-07T08:59:38.797Z,100336.81
2022-12-07T09:02:41.463Z,100340.16
2022-12-07T09:05:44.402Z,100336.19
2022-12-07T09:08:55.274Z,100331.78
2022-12-07T09:11:58.676Z,100331.84
2022-12-07T09:15:01.812Z,100338.00
2022-12-07T09:18:05.493Z,100333.31
2022-12-07T09:21:08.299Z,100328.72
2022-12-07T09:24:13.214Z,100315.25
2022-12-07T09:27:16.753Z,100319.13
2022-12-07T09:30:19.689Z,100311.28
2022-12-07T09:33:22.217Z,100318.13
2022-12-07T09:36:26.192Z,100316.44
2022-12-07T09:39:28.971Z,100310.81
2022-12-07T09:42:38.128Z,100309.81
2022-12-07T09:45:44.383Z,100310.28
2022-12-07T09:48:51.639Z,100296.91
2022-12-07T09:52:03.632Z,100295.53
2022-12-07T09:55:13.076Z,100304.25
2022-12-07T09:58:23.109Z,100293.78
2022-12-07T10:01:25.922Z,100294.03
2022-12-07T10:04:30.621Z,100287.03
2022-12-07T10:07:33.194Z,100282.31
2022-12-07T10:10:39.773Z,100285.09
2022-12-07T10:13:49.940Z,100285.75
2022-12-07T10:16:53.769Z,100277.37
2022-12-07T10:20:18.413Z,100280.06
2022-12-07T10:23:22.110Z,100283.75
2022-12-07T10:26:36.626Z,100278.47
2022-12-07T10:29:40.592Z,100272.84
2022-12-07T10:32:43.027Z,100279.12
2022-12-07T10:35:45.889Z,100266.72
2022-12-07T10:39:02.393Z,100269.88
2022-12-07T10:42:07.031Z,100261.03
2022-12-07T10:45:19.231Z,100257.91
2022-12-07T10:48:50.800Z,100259.72
2022-12-07T10:52:09.675Z,100253.72
2022-12-07T10:55:29.055Z,100263.69
2022-12-07T10:58:34.417Z,100257.37
2022-12-07T11:02:07.783Z,100253.87
2022-12-07T11:05:34.162Z,100262.81
2022-12-07T11:09:09.251Z,100243.81
2022-12-07T11:12:21.637Z,100246.44
2022-12-07T11:15:39.032Z,100242.91
2022-12-07T11:19:06.724Z,100245.28
2022-12-07T11:22:39.742Z,100241.88
2022-12-07T11:25:50.915Z,100235.50
2022-12-07T11:29:12.212Z,100239.12
2022-12-07T11:32:35.681Z,100242.12
2022-12-07T11:35:53.762Z,100235.47
2022-12-07T11:39:01.493Z,100237.69
2022-12-07T11:42:13.020Z,100239.84
2022-12-07T11:45:33.627Z,100236.78
2022-12-07T11:48:42.716Z,100236.50
2022-12-07T11:51:47.344Z,100234.34
2022-12-07T11:54:53.794Z,100242.81
2022-12-07T11:58:05.395Z,100247.63
2022-12-07T12:01:13.963Z,100247.16
2022-12-07T12:04:41.234Z,100246.34
2022-12-07T12:11:38.409Z,100231.09
2022-12-07T12:15:19.628Z,100227.41
2022-12-07T12:18:22.334Z,100218.41
2022-12-07T12:21:30.610Z,100212.19
2022-12-07T12:24:38.495Z,100212.31
2022-12-07T12:27:41.458Z,100204.94
2022-12-07T12:30:44.387Z,100201.12
2022-12-07T12:33:50.705Z,100192.13
2022-12-07T12:36:56.626Z,100184.88
2022-12-07T12:40:17.303Z,100183.19
2022-12-07T12:43:44.318Z,100170.94
2022-12-07T12:46:55.735Z,100174.94
2022-12-07T12:50:18.938Z,100174.41
2022-12-07T12:53:25.108Z,100171.53
2022-12-07T12:56:41.559Z,100173.66
2022-12-07T12:59:59.614Z,100181.28
2022-12-07T13:03:10.236Z,100182.94
2022-12-07T13:06:21.941Z,100194.53
2022-12-07T13:09:29.470Z,100197.31
2022-12-07T13:12:32.838Z,100196.16
2022-12-07T13:16:08.367Z,100195.22
2022-12-07T13:19:44.484Z,100198.91
2022-12-07T13:22:50.887Z,100199.56
2022-12-07T13:26:02.879Z,100196.34
2022-12-07T13:29:17.364Z,100216.22
2022-12-07T13:32:30.649Z,100206.22
2022-12-07T13:35:36.392Z,100205.66
2022-12-07T13:38:40.103Z,100205.97
2022-12-07T13:41:43.930Z,100206.03
2022-12-07T13:44:46.392Z,100207.78
2022-12-07T13:47:58.459Z,100207.88
2022-12-07T13:51:03.620Z,100215.03
2022-12-07T13:54:14.460Z,100226.75
2022-12-07T13:57:18.693Z,100220.72
2022-12-07T14:00:27.465Z,100228.34
2022-12-07T14:03:35.658Z,100226.87
2022-12-07T14:06:49.275Z,100229.66
2022-12-07T14:09:58.089Z,100233.91
2022-12-07T14:13:01.927Z,100225.06
2022-12-07T14:16:19.903Z,100217.25
2022-12-07T14:19:49.040Z,100220.16
2022-12-07T14:22:56.571Z,100217.16
2022-12-07T14:26:21.374Z,100222.09
2022-12-07T14:29:27.092Z,100231.59
2022-12-07T14:32:31.846Z,100236.44
2022-12-07T14:35:41.465Z,100231.72
2022-12-07T14:38:44.089Z,100229.09
2022-12-07T14:41:53.205Z,100231.78
2022-12-07T14:44:57.580Z,100230.13
2022-12-07T14:54:45.886Z,100237.78
2022-12-07T14:57:48.350Z,100247.88
2022-12-07T15:00:51.236Z,100251.41
2022-12-07T15:03:53.745Z,100250.84
2022-12-07T15:07:01.603Z,100247.06
2022-12-07T15:10:05.099Z,100251.84
2022-12-07T15:13:26.918Z,100260.91
2022-12-07T15:16:40.601Z,100250.13
2022-12-07T15:19:52.205Z,100259.91
2022-12-07T15:22:54.893Z,100247.53
2022-12-07T15:25:57.774Z,100252.84
2022-12-07T15:29:00.860Z,100259.56
2022-12-07T15:32:03.779Z,100256.31
2022-12-07T15:35:06.915Z,100261.00
2022-12-07T15:38:09.899Z,100256.22
2022-12-07T15:41:12.347Z,100271.97
2022-12-07T15:44:34.633Z,100273.63
2022-12-07T15:48:19.846Z,100282.00
2022-12-07T15:51:06.805Z,100280.13
2022-12-07T15:54:31.070Z,100285.94
2022-12-07T15:57:36.136Z,100283.97
2022-12-07T16:00:38.655Z,100288.22
2022-12-07T16:03:41.810Z,100286.94
2022-12-07T16:06:44.387Z,100286.62
2022-12-07T16:09:48.422Z,100284.69
2022-12-07T16:12:50.882Z,100282.34
2022-12-07T16:15:53.855Z,100282.72
2022-12-07T16:18:56.435Z,100289.47
2022-12-07T16:22:00.139Z,100285.53
2022-12-07T16:25:03.003Z,100276.38
2022-12-07T16:28:05.997Z,100282.25
2022-12-07T16:31:13.075Z,100280.53
2022-12-07T16:34:16.443Z,100290.09
2022-12-07T16:37:18.941Z,100283.75
2022-12-07T16:40:21.755Z,100287.03
2022-12-07T16:43:24.467Z,100290.53
2022-12-07T16:46:27.277Z,100286.47
2022-12-07T16:49:30.053Z,100290.56
2022-12-07T16:52:32.841Z,100293.75
2022-12-07T16:55:44.756Z,100293.12
2022-12-07T16:58:49.393Z,100293.31
2022-12-07T17:01:52.811Z,100293.38
2022-12-07T17:04:55.541Z,100298.09
2022-12-07T17:07:58.766Z,100288.34
2022-12-07T17:11:01.623Z,100298.22
2022-12-07T17:14:23.111Z,100299.59
2022-12-07T17:17:26.029Z,100309.50
2022-12-07T17:20:28.566Z,100318.66
2022-12-07T17:23:32.370Z,100315.66
2022-12-07T17:26:35.945Z,100317.84
2022-12-07T17:29:38.993Z,100318.09
